Republica Dominicana

Vuelos de Bajo Nivel

 

 

VALIDO DESDE 191200Z ...…………………….…………………HASTA 200000Z

 SALIDA  Y  PUESTA  DEL  SOL  06:47 / 18:01

SANTO DOMINGO FIR...PORT-AU-PRINCE FIR HISPANIOLA...SCT020.OCNL BKN015 BKN070. ISOL SHRA.AFT 19Z WDLY SCT TSRA/SHRA. OTLK...VFR. TIL 01Z OCNL MVFR CIG TSRA SHRA BR.WTRS 69W-72W...BKN020 BKN060. TOP FL180. WDLY SCT SHRA.OTLK...MVFR CIG SHRA BR.ELSW...SCT025 SCT060. ISOL SHRA. OTLK...VFR SHRA. ICE AND FRZLVL...NO SGFNT ICE EXP OUTSIDE CNVTV ACT.FRZLVL...W ATLC...100-140 LWRNG TO 080-120 NW TO 150-165 S.CARIB...155 E TO 175 SW.GLFMEX...155-165..TURB...NO SGFNT TURB EXP OUTSIDE CNVTV ACT.

 

5,000 FT.

10,000 FT.

18,000 FT.

24,000 FT.

MDSD

0000KT+17ºC

2805KT+10ºC

0205KT-05ºC

2515KT-17ºC

MTPP

0000KT+17ºC

2805KT+10ºC

0205KT-05ºC

2515KT-17ºC

TJSJ

0805KT+18ºC

2805KT+09ºC

0210KT-05ºC

3510KT-16ºC


TAF MDPP 191000Z 1912/2012
 12008KT 9999 SCT018 PROB30 1912/1918 8000 –RA BKN017 BECMG 1915/1917 06012KT=

TAF MDST 191000Z 1912/2012 00000KT 9999 SCT016 TEMPO 1911/1913 3000 BR BKN010 PROB30 1919/2001 5000 RA FEW014CB BKN016=

TAF MDPC 191000Z 1912/2012 00000KT 9999 FEW018 BECMG 1915/1917 12010KT PROB40 1918/1921 SH SCT018 BECMG 2003/2006 00000KT=

TAF MDBH 191000Z 1912/2012 00000KT 9999 FEW018CB FEW020 SCT300=

TAF MDJB 191000Z 1912/2012 00000KT 9999 FEW016CB FEW018 BECMG 1913/1916 09008KT=

TAF MDSD 191000Z 1912/2012 04004KT 9999 FEW016CB FEW016 TEMPO 1919/1923 7000 –RA FEW014CB SCT016 SCT070=

TAF MDLR 191000Z 1912/2012 00000KT 9999 FEW016CB FEW016 BECMG 1915/1917 13006KT TEMPO 1919/1923 7000 –RA FEW014CB SCT016 SCT070=

TAF MDCY 191000Z 1912/2012 00000KT 9999 FEW018 PROB30 TEMPO 1921/2000 7000 -RA FEW016CB SCT018 SCT070=

 

TAF KMIA 190914Z 1909/2012 VRB04KT P6SM FEW030 BKN050FM191500 28009KT P6SM SCT025 BKN040 FM200200 VRB04KT P6SM FEW030=

TAF KJFK 191006Z 1910/2012 26008KT 6SM BR VCSH SCT006 BKN010 OVC040FM191300 28008KT P6SM FEW009 SCT030FM200000 32008KT P6SM BKN035 BKN150 FM200800 33008KT P6SM SCT020 BKN120=

TAF TJSJ 190524Z 1906/2006 00000KT P6SM VCSH SCT025 FM191400 04010KT P6SM FEW025 SCT060 FM191800 08008KT P6SM VCSH SCT020 SCT040 FM192200 00000KT P6SM SCT030 SCT060=

TAF MUHA 190500Z 1906/2006 VRB04KT 9000 FEW040 BECMG 1910/1912 24005KT BECMG 1915/1917 34010KT SCT030 BECMG 2000/2002 03005KT=

TAF MUGM 1907/2007 34008KT 9999 FEW025 SCT110 BKN250 QNH2981INS BECMG 1911/1913 35010KT 9999 VCSH SCT025 BKN070 BKN120 QNH2985INS TEMPO 1915/1921 VRB15G20KT 6000 -SHRA BKN020 OVC070 T23/1911Z T28/1917Z FN00218=

TAF TNCC 190515Z 1906/2006 15005KT 9999 SCT018 TEMPO 1906/1912 BKN015=

TAF MKJP 190515Z 1906/2006 VRB03KT 9999 FEW020 SCT034 BECMG 1914/1916 SCT020 FEW022CB TEMPO 1916/1924 SHRA SCT018 SCT020CB BKN034 BECMG 2001/2003 SCT018 SCT036=

 

  • ELABORADO POR: LICELOTTE ANTIGUA TAVERAS
  • 19 DE NOVIEMBRE DE 2019.-



Tamaño letra

Contraste

Otros